CAL023 KONT-RCTP
Flight info
| Callsign | CAL023 |
|---|---|
| Flight time | N/A |
| Altitude | 36000 |
| Route | SNSHN5 COREZ DCT RGOOD DCT OAK DCT AMAKR DCT VESPA DCT 42N130W/N0497F320 44N140W 46N150W/N0497F340 49N160W 50N170W 49N180E 47N170E 40N160E/N0489F360 34N150E 30N140E DCT BIXAK DCT RYUKI Z32 YUSKE Y322 SEDKU R595 GRACE GRACE1B |
| Aircraft | B77W/H-SDE1E2E3FGHIJ1J2J3J5M1P2RWY/LB1D1 |
Departure
| Time | N/A |
|---|---|
| Airport | Ontario International Airport (KONT) |
Arrival
| Time | 2026-05-04 02:51 |
|---|---|
| Airport | Taiwan Taoyuan International Airport (RCTP) |
| Time | Latitude | Longitude | Altitude | Speed | Heading |
|---|---|---|---|---|---|
| 2026-05-04 01:42 | 25.91392 | 126.79858 | 36107 ft | 431 kts | 250° |
| 2026-05-04 01:42 | 25.89286 | 126.73636 | 36121 ft | 430 kts | 250° |
| 2026-05-04 01:43 | 25.87178 | 126.67417 | 36110 ft | 430 kts | 250° |
| 2026-05-04 01:43 | 25.85071 | 126.61211 | 36101 ft | 429 kts | 250° |
| 2026-05-04 01:44 | 25.82966 | 126.55022 | 36108 ft | 428 kts | 250° |
| 2026-05-04 01:44 | 25.80863 | 126.48850 | 36124 ft | 427 kts | 250° |
| 2026-05-04 01:45 | 25.78761 | 126.42689 | 36106 ft | 426 kts | 250° |
| 2026-05-04 01:45 | 25.75625 | 126.33516 | 36110 ft | 426 kts | 250° |
| 2026-05-04 01:46 | 25.73521 | 126.27373 | 36113 ft | 426 kts | 250° |
| 2026-05-04 01:46 | 25.71409 | 126.21218 | 36112 ft | 427 kts | 250° |
| 2026-05-04 01:47 | 25.69291 | 126.15054 | 36105 ft | 428 kts | 250° |
| 2026-05-04 01:47 | 25.67172 | 126.08897 | 36107 ft | 428 kts | 250° |
| 2026-05-04 01:48 | 25.65049 | 126.02739 | 36106 ft | 427 kts | 250° |
| 2026-05-04 01:48 | 25.62924 | 125.96584 | 36098 ft | 428 kts | 250° |
| 2026-05-04 01:49 | 25.60794 | 125.90425 | 36102 ft | 429 kts | 250° |
| 2026-05-04 01:49 | 25.58658 | 125.84257 | 36107 ft | 430 kts | 250° |
| 2026-05-04 01:50 | 25.56512 | 125.78071 | 36101 ft | 431 kts | 250° |
| 2026-05-04 01:50 | 25.54361 | 125.71880 | 36109 ft | 431 kts | 250° |
| 2026-05-04 01:51 | 25.52207 | 125.65690 | 36102 ft | 430 kts | 250° |
| 2026-05-04 01:51 | 25.50057 | 125.59523 | 36082 ft | 429 kts | 250° |
| 2026-05-04 01:52 | 25.47905 | 125.53356 | 36093 ft | 429 kts | 250° |
| 2026-05-04 01:52 | 25.45750 | 125.47193 | 36108 ft | 429 kts | 250° |
| 2026-05-04 01:53 | 25.43596 | 125.41040 | 36100 ft | 428 kts | 250° |
| 2026-05-04 01:53 | 25.41442 | 125.34899 | 36103 ft | 428 kts | 250° |
| 2026-05-04 01:54 | 25.39288 | 125.28767 | 36100 ft | 428 kts | 250° |
| 2026-05-04 01:54 | 25.37131 | 125.22635 | 36114 ft | 427 kts | 250° |
| 2026-05-04 01:55 | 25.34976 | 125.16518 | 36091 ft | 427 kts | 250° |
| 2026-05-04 01:55 | 25.32817 | 125.10399 | 36100 ft | 427 kts | 250° |
| 2026-05-04 01:56 | 25.30667 | 125.04314 | 36105 ft | 428 kts | 250° |
| 2026-05-04 01:56 | 25.28496 | 124.98180 | 36121 ft | 429 kts | 250° |
| 2026-05-04 01:57 | 25.26321 | 124.92045 | 36107 ft | 429 kts | 250° |
| 2026-05-04 01:57 | 25.24145 | 124.85916 | 36101 ft | 428 kts | 250° |
| 2026-05-04 01:58 | 25.21976 | 124.79814 | 36105 ft | 427 kts | 250° |
| 2026-05-04 01:58 | 25.19804 | 124.73716 | 36094 ft | 427 kts | 250° |
| 2026-05-04 01:59 | 25.17632 | 124.67624 | 36108 ft | 427 kts | 250° |
| 2026-05-04 01:59 | 25.15454 | 124.61527 | 36106 ft | 427 kts | 250° |
| 2026-05-04 02:00 | 25.13271 | 124.55421 | 36099 ft | 427 kts | 250° |
| 2026-05-04 02:00 | 25.11088 | 124.49329 | 36109 ft | 427 kts | 249° |
| 2026-05-04 02:01 | 25.08903 | 124.43237 | 36113 ft | 427 kts | 249° |
| 2026-05-04 02:01 | 25.06714 | 124.37145 | 36099 ft | 427 kts | 249° |
| 2026-05-04 02:02 | 25.04524 | 124.31059 | 36097 ft | 427 kts | 249° |
| 2026-05-04 02:02 | 25.02346 | 124.25014 | 36104 ft | 427 kts | 249° |
| 2026-05-04 02:03 | 25.00135 | 124.18886 | 36112 ft | 428 kts | 249° |
| 2026-05-04 02:03 | 24.97947 | 124.12832 | 36105 ft | 428 kts | 249° |
| 2026-05-04 02:04 | 24.95744 | 124.06743 | 36105 ft | 428 kts | 249° |
| 2026-05-04 02:04 | 24.94211 | 124.00445 | 36111 ft | 427 kts | 262° |
| 2026-05-04 02:05 | 24.93882 | 123.93919 | 36105 ft | 429 kts | 272° |
| 2026-05-04 02:05 | 24.94556 | 123.87384 | 36102 ft | 429 kts | 274° |
| 2026-05-04 02:06 | 24.95301 | 123.80865 | 36102 ft | 429 kts | 274° |
| 2026-05-04 02:06 | 24.96013 | 123.74343 | 36095 ft | 429 kts | 274° |
| 2026-05-04 02:07 | 24.96703 | 123.67813 | 36114 ft | 429 kts | 274° |
| 2026-05-04 02:07 | 24.97385 | 123.61269 | 36110 ft | 430 kts | 274° |
| 2026-05-04 02:08 | 24.98066 | 123.54711 | 36105 ft | 431 kts | 274° |
| 2026-05-04 02:08 | 24.98746 | 123.48150 | 36103 ft | 431 kts | 274° |
| 2026-05-04 02:09 | 24.99423 | 123.41583 | 36108 ft | 431 kts | 274° |
| 2026-05-04 02:09 | 25.00098 | 123.35012 | 36111 ft | 431 kts | 274° |
| 2026-05-04 02:10 | 25.00656 | 123.28442 | 36110 ft | 430 kts | 271° |
| 2026-05-04 02:10 | 25.00993 | 123.21865 | 36115 ft | 430 kts | 270° |
| 2026-05-04 02:11 | 25.01315 | 123.15288 | 36115 ft | 429 kts | 269° |
| 2026-05-04 02:11 | 25.01244 | 123.09837 | 36117 ft | 427 kts | 265° |
| 2026-05-04 02:12 | 25.00920 | 123.03301 | 36114 ft | 427 kts | 265° |
| 2026-05-04 02:12 | 25.00562 | 122.96780 | 36053 ft | 424 kts | 265° |
| 2026-05-04 02:13 | 25.00381 | 122.93545 | 35592 ft | 421 kts | 265° |
| 2026-05-04 02:13 | 25.00204 | 122.90330 | 35001 ft | 419 kts | 264° |
| 2026-05-04 02:13 | 25.00036 | 122.87129 | 34444 ft | 417 kts | 264° |
| 2026-05-04 02:13 | 24.99875 | 122.83947 | 33936 ft | 414 kts | 264° |
| 2026-05-04 02:14 | 24.99724 | 122.80797 | 33393 ft | 410 kts | 264° |
| 2026-05-04 02:14 | 24.99581 | 122.77663 | 32835 ft | 408 kts | 264° |
| 2026-05-04 02:14 | 24.99446 | 122.74549 | 32282 ft | 405 kts | 264° |
| 2026-05-04 02:14 | 24.99319 | 122.71452 | 31739 ft | 404 kts | 264° |
| 2026-05-04 02:15 | 24.99199 | 122.68374 | 31212 ft | 402 kts | 264° |
| 2026-05-04 02:15 | 24.99089 | 122.65303 | 30705 ft | 400 kts | 265° |
| 2026-05-04 02:15 | 24.99091 | 122.62250 | 30213 ft | 399 kts | 268° |
| 2026-05-04 02:15 | 24.99177 | 122.59199 | 29672 ft | 396 kts | 269° |
| 2026-05-04 02:16 | 24.99225 | 122.57778 | 29422 ft | 395 kts | 269° |
| 2026-05-04 02:16 | 24.99313 | 122.55231 | 28998 ft | 392 kts | 269° |
| 2026-05-04 02:16 | 24.99418 | 122.52286 | 28518 ft | 388 kts | 269° |
| 2026-05-04 02:16 | 24.99526 | 122.49327 | 28029 ft | 384 kts | 269° |
| 2026-05-04 02:17 | 24.99632 | 122.46394 | 27524 ft | 382 kts | 269° |
| 2026-05-04 02:17 | 24.99736 | 122.43485 | 27028 ft | 379 kts | 269° |
| 2026-05-04 02:17 | 24.99838 | 122.40590 | 26539 ft | 376 kts | 269° |
| 2026-05-04 02:17 | 24.99937 | 122.37721 | 26077 ft | 374 kts | 269° |
| 2026-05-04 02:18 | 25.00034 | 122.34869 | 25615 ft | 371 kts | 269° |
| 2026-05-04 02:18 | 25.00124 | 122.32030 | 25130 ft | 370 kts | 269° |
| 2026-05-04 02:18 | 25.00208 | 122.29203 | 24665 ft | 369 kts | 269° |
| 2026-05-04 02:18 | 25.00270 | 122.26981 | 24329 ft | 367 kts | 269° |
| 2026-05-04 02:19 | 25.00342 | 122.24199 | 23853 ft | 358 kts | 269° |
| 2026-05-04 02:19 | 25.00411 | 122.21475 | 22953 ft | 354 kts | 269° |
| 2026-05-04 02:19 | 25.00476 | 122.18766 | 21995 ft | 352 kts | 269° |
| 2026-05-04 02:19 | 25.00539 | 122.16089 | 21130 ft | 347 kts | 269° |
| 2026-05-04 02:20 | 25.00637 | 122.13456 | 20306 ft | 342 kts | 270° |
| 2026-05-04 02:20 | 25.00772 | 122.10856 | 19513 ft | 337 kts | 271° |
| 2026-05-04 02:20 | 25.00940 | 122.08301 | 18726 ft | 333 kts | 274° |
| 2026-05-04 02:20 | 25.01316 | 122.05793 | 17904 ft | 329 kts | 277° |
| 2026-05-04 02:21 | 25.01777 | 122.03341 | 17075 ft | 324 kts | 278° |
| 2026-05-04 02:21 | 25.02258 | 122.00935 | 16256 ft | 319 kts | 278° |
| 2026-05-04 02:21 | 25.02745 | 121.98562 | 15438 ft | 315 kts | 278° |
| 2026-05-04 02:21 | 25.03238 | 121.96224 | 14658 ft | 311 kts | 278° |
| 2026-05-04 02:22 | 25.03741 | 121.93881 | 14064 ft | 315 kts | 278° |
| 2026-05-04 02:22 | 25.04252 | 121.91552 | 13741 ft | 310 kts | 278° |
| 2026-05-04 02:22 | 25.04763 | 121.89259 | 13352 ft | 307 kts | 279° |
| 2026-05-04 02:22 | 25.05297 | 121.86991 | 12899 ft | 304 kts | 284° |
| 2026-05-04 02:23 | 25.06162 | 121.84819 | 12331 ft | 312 kts | 290° |
| 2026-05-04 02:23 | 25.07132 | 121.82672 | 11883 ft | 313 kts | 291° |
| 2026-05-04 02:23 | 25.08114 | 121.80552 | 11564 ft | 308 kts | 291° |
| 2026-05-04 02:23 | 25.09090 | 121.78456 | 11174 ft | 307 kts | 291° |
| 2026-05-04 02:24 | 25.10062 | 121.76381 | 10751 ft | 301 kts | 290° |
| 2026-05-04 02:24 | 25.10877 | 121.74267 | 10288 ft | 302 kts | 286° |
| 2026-05-04 02:24 | 25.11597 | 121.72101 | 9966 ft | 300 kts | 285° |
| 2026-05-04 02:24 | 25.12256 | 121.69927 | 9575 ft | 299 kts | 283° |
| 2026-05-04 02:25 | 25.12875 | 121.67738 | 9192 ft | 298 kts | 283° |
| 2026-05-04 02:25 | 25.13497 | 121.65499 | 9043 ft | 309 kts | 283° |
| 2026-05-04 02:25 | 25.14120 | 121.63252 | 8994 ft | 303 kts | 283° |
| 2026-05-04 02:25 | 25.14727 | 121.61075 | 8990 ft | 297 kts | 283° |
| 2026-05-04 02:26 | 25.15295 | 121.58958 | 8979 ft | 296 kts | 281° |
| 2026-05-04 02:26 | 25.15783 | 121.56745 | 9000 ft | 299 kts | 276° |
| 2026-05-04 02:26 | 25.16073 | 121.54466 | 8997 ft | 298 kts | 272° |
| 2026-05-04 02:26 | 25.16003 | 121.52201 | 9001 ft | 295 kts | 259° |
| 2026-05-04 02:27 | 25.15594 | 121.49984 | 9004 ft | 297 kts | 255° |
| 2026-05-04 02:27 | 25.15093 | 121.47767 | 9002 ft | 298 kts | 254° |
| 2026-05-04 02:27 | 25.14556 | 121.45561 | 8999 ft | 298 kts | 253° |
| 2026-05-04 02:27 | 25.14027 | 121.43357 | 8975 ft | 296 kts | 254° |
| 2026-05-04 02:28 | 25.13487 | 121.41184 | 8670 ft | 292 kts | 253° |
| 2026-05-04 02:28 | 25.12970 | 121.39020 | 8398 ft | 287 kts | 254° |
| 2026-05-04 02:28 | 25.12496 | 121.36963 | 8083 ft | 276 kts | 254° |
| 2026-05-04 02:28 | 25.12030 | 121.34934 | 7649 ft | 268 kts | 254° |
| 2026-05-04 02:29 | 25.11586 | 121.32940 | 7260 ft | 264 kts | 255° |
| 2026-05-04 02:29 | 25.11149 | 121.30988 | 7010 ft | 268 kts | 253° |
| 2026-05-04 02:29 | 25.10680 | 121.29003 | 6765 ft | 268 kts | 252° |
| 2026-05-04 02:29 | 25.10209 | 121.27064 | 6637 ft | 256 kts | 253° |
| 2026-05-04 02:30 | 25.09821 | 121.25125 | 5962 ft | 264 kts | 254° |
| 2026-05-04 02:30 | 25.09407 | 121.23099 | 4964 ft | 282 kts | 253° |
| 2026-05-04 02:30 | 25.08841 | 121.20954 | 4239 ft | 298 kts | 251° |
| 2026-05-04 02:30 | 25.08203 | 121.18731 | 3696 ft | 303 kts | 254° |
| 2026-05-04 02:31 | 25.07726 | 121.16476 | 3370 ft | 303 kts | 261° |
| 2026-05-04 02:31 | 25.07301 | 121.14161 | 3045 ft | 309 kts | 260° |
| 2026-05-04 02:31 | 25.06894 | 121.11866 | 2965 ft | 300 kts | 261° |
| 2026-05-04 02:31 | 25.06514 | 121.09644 | 2944 ft | 289 kts | 261° |
| 2026-05-04 02:32 | 25.06152 | 121.07524 | 2959 ft | 273 kts | 261° |
| 2026-05-04 02:32 | 25.05774 | 121.05499 | 2943 ft | 267 kts | 252° |
| 2026-05-04 02:32 | 25.04832 | 121.03735 | 2963 ft | 271 kts | 220° |
| 2026-05-04 02:32 | 25.03279 | 121.02642 | 2861 ft | 261 kts | 192° |
| 2026-05-04 02:33 | 25.01568 | 121.02393 | 2596 ft | 238 kts | 162° |
| 2026-05-04 02:33 | 25.00123 | 121.03014 | 2326 ft | 216 kts | 139° |
| 2026-05-04 02:33 | 24.98905 | 121.03903 | 2130 ft | 204 kts | 135° |
| 2026-05-04 02:33 | 24.97831 | 121.04783 | 2004 ft | 188 kts | 135° |
| 2026-05-04 02:34 | 24.96601 | 121.05452 | 2001 ft | 198 kts | 137° |
| 2026-05-04 02:34 | 24.95762 | 121.06476 | 1987 ft | 169 kts | 97° |
| 2026-05-04 02:34 | 24.95828 | 121.07680 | 1960 ft | 153 kts | 56° |
| 2026-05-04 02:34 | 24.96549 | 121.08456 | 1966 ft | 138 kts | 43° |
| 2026-05-04 02:35 | 24.97237 | 121.09144 | 1963 ft | 131 kts | 44° |
| 2026-05-04 02:35 | 24.97902 | 121.09838 | 1968 ft | 132 kts | 46° |
| 2026-05-04 02:35 | 24.98532 | 121.10566 | 1976 ft | 131 kts | 48° |
| 2026-05-04 02:35 | 24.99149 | 121.11315 | 1985 ft | 134 kts | 49° |
| 2026-05-04 02:36 | 24.99766 | 121.12084 | 1985 ft | 132 kts | 50° |
| 2026-05-04 02:36 | 25.00364 | 121.12835 | 1970 ft | 129 kts | 51° |
| 2026-05-04 02:36 | 25.00944 | 121.13569 | 1987 ft | 125 kts | 50° |
| 2026-05-04 02:36 | 25.01520 | 121.14298 | 1863 ft | 126 kts | 49° |
| 2026-05-04 02:37 | 25.02089 | 121.15018 | 1712 ft | 121 kts | 49° |
| 2026-05-04 02:37 | 25.02622 | 121.15693 | 1542 ft | 117 kts | 47° |
| 2026-05-04 02:37 | 25.03157 | 121.16371 | 1399 ft | 119 kts | 47° |
| 2026-05-04 02:37 | 25.03696 | 121.17052 | 1247 ft | 116 kts | 50° |
| 2026-05-04 02:38 | 25.04222 | 121.17719 | 1085 ft | 116 kts | 49° |
| 2026-05-04 02:38 | 25.04786 | 121.18437 | 927 ft | 129 kts | 48° |
| 2026-05-04 02:38 | 25.05373 | 121.19166 | 691 ft | 129 kts | 51° |
| 2026-05-04 02:38 | 25.05990 | 121.19933 | 545 ft | 136 kts | 53° |
| 2026-05-04 02:39 | 25.06621 | 121.20701 | 365 ft | 135 kts | 55° |
| 2026-05-04 02:39 | 25.07225 | 121.21508 | 209 ft | 140 kts | 53° |
| 2026-05-04 02:39 | 25.07837 | 121.22298 | 117 ft | 125 kts | 53° |
| 2026-05-04 02:39 | 25.08405 | 121.23025 | 294 ft | 128 kts | 52° |
| 2026-05-04 02:40 | 25.09067 | 121.23877 | 986 ft | 164 kts | 50° |
| 2026-05-04 02:40 | 25.09891 | 121.24769 | 1850 ft | 171 kts | 34° |
| 2026-05-04 02:40 | 25.11075 | 121.25117 | 2520 ft | 191 kts | 2° |
| 2026-05-04 02:40 | 25.12437 | 121.24585 | 2915 ft | 232 kts | 331° |
| 2026-05-04 02:41 | 25.13543 | 121.23189 | 2974 ft | 255 kts | 303° |
| 2026-05-04 02:41 | 25.13935 | 121.21240 | 2980 ft | 269 kts | 271° |
| 2026-05-04 02:41 | 25.13449 | 121.19233 | 2992 ft | 274 kts | 240° |
| 2026-05-04 02:41 | 25.12360 | 121.17502 | 3008 ft | 275 kts | 231° |
| 2026-05-04 02:42 | 25.11162 | 121.15876 | 2972 ft | 273 kts | 229° |
| 2026-05-04 02:42 | 25.09936 | 121.14263 | 2948 ft | 272 kts | 229° |
| 2026-05-04 02:42 | 25.08737 | 121.12686 | 2943 ft | 268 kts | 229° |
| 2026-05-04 02:42 | 25.07542 | 121.11105 | 3004 ft | 267 kts | 228° |
| 2026-05-04 02:43 | 25.06377 | 121.09511 | 2870 ft | 265 kts | 229° |
| 2026-05-04 02:43 | 25.05246 | 121.07960 | 2795 ft | 257 kts | 229° |
| 2026-05-04 02:43 | 25.04117 | 121.06411 | 2752 ft | 258 kts | 229° |
| 2026-05-04 02:43 | 25.03024 | 121.04886 | 2845 ft | 248 kts | 230° |
| 2026-05-04 02:44 | 25.01973 | 121.03409 | 2546 ft | 246 kts | 230° |
| 2026-05-04 02:44 | 25.00810 | 121.02007 | 2243 ft | 247 kts | 211° |
| 2026-05-04 02:44 | 24.99308 | 121.01382 | 1947 ft | 213 kts | 171° |
| 2026-05-04 02:44 | 24.97935 | 121.01780 | 1991 ft | 201 kts | 139° |
| 2026-05-04 02:45 | 24.96969 | 121.02755 | 1986 ft | 179 kts | 113° |
| 2026-05-04 02:45 | 24.96414 | 121.03927 | 1971 ft | 165 kts | 91° |
| 2026-05-04 02:45 | 24.96465 | 121.05115 | 2012 ft | 155 kts | 75° |
| 2026-05-04 02:45 | 24.96621 | 121.06307 | 2004 ft | 159 kts | 75° |
| 2026-05-04 02:46 | 24.96789 | 121.07487 | 1978 ft | 150 kts | 68° |
| 2026-05-04 02:46 | 24.97297 | 121.08435 | 2014 ft | 144 kts | 53° |
| 2026-05-04 02:46 | 24.97873 | 121.09360 | 2011 ft | 148 kts | 55° |
| 2026-05-04 02:46 | 24.98462 | 121.10298 | 2008 ft | 150 kts | 53° |
| 2026-05-04 02:47 | 24.99107 | 121.11203 | 1996 ft | 149 kts | 51° |
| 2026-05-04 02:47 | 24.99745 | 121.12037 | 1992 ft | 137 kts | 51° |
| 2026-05-04 02:47 | 25.00345 | 121.12808 | 1999 ft | 128 kts | 50° |
| 2026-05-04 02:47 | 25.00904 | 121.13518 | 2012 ft | 118 kts | 49° |
| 2026-05-04 02:48 | 25.01471 | 121.14235 | 1876 ft | 127 kts | 49° |
| 2026-05-04 02:48 | 25.02045 | 121.14963 | 1715 ft | 123 kts | 48° |
| 2026-05-04 02:48 | 25.02596 | 121.15659 | 1553 ft | 122 kts | 47° |
| 2026-05-04 02:48 | 25.03159 | 121.16373 | 1403 ft | 123 kts | 47° |
| 2026-05-04 02:49 | 25.03710 | 121.17070 | 1234 ft | 118 kts | 49° |
| 2026-05-04 02:49 | 25.04258 | 121.17764 | 1075 ft | 124 kts | 49° |
| 2026-05-04 02:49 | 25.04831 | 121.18493 | 861 ft | 129 kts | 49° |
| 2026-05-04 02:49 | 25.05450 | 121.19258 | 693 ft | 137 kts | 49° |
| 2026-05-04 02:50 | 25.06131 | 121.20056 | 530 ft | 145 kts | 53° |
| 2026-05-04 02:50 | 25.06769 | 121.20908 | 353 ft | 144 kts | 53° |
| 2026-05-04 02:50 | 25.07416 | 121.21733 | 122 ft | 140 kts | 54° |
| 2026-05-04 02:50 | 25.07975 | 121.22472 | 107 ft | 103 kts | 48° |
| 2026-05-04 02:51 | 25.08327 | 121.22917 | 107 ft | 49 kts | 49° |
| 2026-05-04 02:51 | 25.08469 | 121.23100 | 107 ft | 28 kts | 48° |
| 2026-05-04 02:51 | 25.08621 | 121.23291 | 105 ft | 34 kts | 51° |
| 2026-05-04 02:51 | 25.08706 | 121.23491 | 107 ft | 24 kts | 76° |
| 2026-05-04 02:52 | 25.08730 | 121.23637 | 107 ft | 15 kts | 78° |
| 2026-05-04 02:52 | 25.08749 | 121.23737 | 106 ft | 10 kts | 78° |
| 2026-05-04 02:52 | 25.08740 | 121.23807 | 107 ft | 10 kts | 121° |
| 2026-05-04 02:52 | 25.08683 | 121.23844 | 107 ft | 9 kts | 181° |
| 2026-05-04 02:53 | 25.08642 | 121.23810 | 107 ft | 8 kts | 230° |
| 2026-05-04 02:53 | 25.08606 | 121.23764 | 106 ft | 8 kts | 230° |
| 2026-05-04 02:53 | 25.08569 | 121.23716 | 107 ft | 8 kts | 229° |
| 2026-05-04 02:53 | 25.08530 | 121.23667 | 108 ft | 9 kts | 228° |
| 2026-05-04 02:54 | 25.08491 | 121.23619 | 109 ft | 9 kts | 229° |
| 2026-05-04 02:54 | 25.08451 | 121.23567 | 108 ft | 9 kts | 230° |
| 2026-05-04 02:54 | 25.08421 | 121.23531 | 108 ft | 5 kts | 217° |
| 2026-05-04 02:54 | 25.08386 | 121.23530 | 107 ft | 5 kts | 165° |
| 2026-05-04 02:55 | 25.08327 | 121.23577 | 109 ft | 5 kts | 139° |
| 2026-05-04 02:55 | 25.08314 | 121.23590 | 109 ft | 2 kts | 139° |
| 2026-05-04 02:55 | 25.08306 | 121.23597 | 106 ft | 1 kts | 139° |
| 2026-05-04 02:56 | 25.08305 | 121.23598 | 106 ft | 0 kts | 139° |